sensor_id;sensor_type;location;lat;lon;timestamp;P1;durP1;ratioP1;P2;durP2;ratioP2
74914;SDS011;63475;45.140;-75.616;2023-07-29T00:01:17;19.75;;;8.50;;
74914;SDS011;63475;45.140;-75.616;2023-07-29T00:03:20;19.02;;;8.73;;
74914;SDS011;63475;45.140;-75.616;2023-07-29T00:05:22;18.88;;;8.82;;
74914;SDS011;63475;45.140;-75.616;2023-07-29T00:07:25;16.75;;;9.70;;
74914;SDS011;63475;45.140;-75.616;2023-07-29T00:09:28;19.00;;;8.70;;
74914;SDS011;63475;45.140;-75.616;2023-07-29T00:11:33;18.20;;;8.98;;
74914;SDS011;63475;45.140;-75.616;2023-07-29T00:13:39;17.13;;;9.23;;
74914;SDS011;63475;45.140;-75.616;2023-07-29T00:15:41;14.27;;;6.63;;
74914;SDS011;63475;45.140;-75.616;2023-07-29T00:17:47;10.88;;;5.80;;
74914;SDS011;63475;45.140;-75.616;2023-07-29T00:19:49;7.82;;;3.25;;
74914;SDS011;63475;45.140;-75.616;2023-07-29T00:21:52;6.55;;;2.38;;
74914;SDS011;63475;45.140;-75.616;2023-07-29T00:23:57;6.88;;;2.67;;
74914;SDS011;63475;45.140;-75.616;2023-07-29T00:25:59;6.05;;;2.30;;
74914;SDS011;63475;45.140;-75.616;2023-07-29T00:28:02;6.22;;;1.77;;
74914;SDS011;63475;45.140;-75.616;2023-07-29T00:30:05;5.32;;;1.98;;
74914;SDS011;63475;45.140;-75.616;2023-07-29T00:32:08;6.35;;;2.45;;
74914;SDS011;63475;45.140;-75.616;2023-07-29T00:34:10;5.55;;;2.42;;
74914;SDS011;63475;45.140;-75.616;2023-07-29T00:36:19;8.93;;;2.72;;
74914;SDS011;63475;45.140;-75.616;2023-07-29T00:38:22;8.52;;;2.67;;
74914;SDS011;63475;45.140;-75.616;2023-07-29T00:40:24;10.32;;;3.90;;
74914;SDS011;63475;45.140;-75.616;2023-07-29T00:42:30;7.40;;;2.80;;
74914;SDS011;63475;45.140;-75.616;2023-07-29T00:44:33;5.78;;;1.95;;
74914;SDS011;63475;45.140;-75.616;2023-07-29T00:46:38;7.38;;;2.47;;
74914;SDS011;63475;45.140;-75.616;2023-07-29T00:48:43;7.03;;;2.08;;
74914;SDS011;63475;45.140;-75.616;2023-07-29T00:50:46;8.05;;;3.67;;
74914;SDS011;63475;45.140;-75.616;2023-07-29T00:52:49;6.90;;;2.03;;
74914;SDS011;63475;45.140;-75.616;2023-07-29T00:54:52;8.05;;;2.88;;
74914;SDS011;63475;45.140;-75.616;2023-07-29T00:56:55;7.68;;;3.50;;
74914;SDS011;63475;45.140;-75.616;2023-07-29T00:58:58;6.30;;;2.85;;
74914;SDS011;63475;45.140;-75.616;2023-07-29T01:01:03;5.85;;;2.95;;
74914;SDS011;63475;45.140;-75.616;2023-07-29T01:03:07;12.13;;;4.35;;
74914;SDS011;63475;45.140;-75.616;2023-07-29T01:05:13;7.32;;;2.97;;
74914;SDS011;63475;45.140;-75.616;2023-07-29T01:09:37;8.18;;;4.20;;
74914;SDS011;63475;45.140;-75.616;2023-07-29T01:12:11;7.72;;;3.50;;
74914;SDS011;63475;45.140;-75.616;2023-07-29T01:16:42;7.80;;;3.00;;
74914;SDS011;63475;45.140;-75.616;2023-07-29T01:18:48;6.57;;;2.42;;
74914;SDS011;63475;45.140;-75.616;2023-07-29T01:20:56;7.43;;;3.15;;
74914;SDS011;63475;45.140;-75.616;2023-07-29T01:23:01;8.52;;;2.97;;
74914;SDS011;63475;45.140;-75.616;2023-07-29T01:25:04;10.15;;;4.05;;
74914;SDS011;63475;45.140;-75.616;2023-07-29T01:27:07;10.20;;;3.08;;
74914;SDS011;63475;45.140;-75.616;2023-07-29T01:29:10;8.80;;;3.75;;
74914;SDS011;63475;45.140;-75.616;2023-07-29T01:31:13;9.02;;;3.28;;
74914;SDS011;63475;45.140;-75.616;2023-07-29T01:33:29;8.68;;;3.40;;
74914;SDS011;63475;45.140;-75.616;2023-07-29T01:35:44;9.77;;;3.63;;
74914;SDS011;63475;45.140;-75.616;2023-07-29T01:37:57;8.02;;;3.15;;
74914;SDS011;63475;45.140;-75.616;2023-07-29T01:40:05;11.20;;;3.65;;
74914;SDS011;63475;45.140;-75.616;2023-07-29T01:42:10;10.43;;;4.50;;
74914;SDS011;63475;45.140;-75.616;2023-07-29T01:44:13;12.00;;;5.57;;
74914;SDS011;63475;45.140;-75.616;2023-07-29T01:46:16;8.30;;;3.47;;
74914;SDS011;63475;45.140;-75.616;2023-07-29T01:48:19;9.38;;;3.83;;
74914;SDS011;63475;45.140;-75.616;2023-07-29T01:50:21;9.38;;;4.05;;
74914;SDS011;63475;45.140;-75.616;2023-07-29T01:52:24;11.50;;;4.57;;
74914;SDS011;63475;45.140;-75.616;2023-07-29T01:56:39;10.63;;;4.85;;
74914;SDS011;63475;45.140;-75.616;2023-07-29T01:58:42;12.13;;;5.97;;
74914;SDS011;63475;45.140;-75.616;2023-07-29T02:00:44;9.43;;;4.90;;
74914;SDS011;63475;45.140;-75.616;2023-07-29T02:02:47;10.43;;;5.53;;
74914;SDS011;63475;45.140;-75.616;2023-07-29T02:04:50;10.65;;;5.25;;
74914;SDS011;63475;45.140;-75.616;2023-07-29T02:06:54;9.43;;;5.40;;
74914;SDS011;63475;45.140;-75.616;2023-07-29T02:08:56;11.23;;;4.28;;
74914;SDS011;63475;45.140;-75.616;2023-07-29T02:10:59;11.13;;;4.57;;
74914;SDS011;63475;45.140;-75.616;2023-07-29T02:13:02;9.85;;;4.70;;
74914;SDS011;63475;45.140;-75.616;2023-07-29T02:15:05;10.32;;;4.75;;
74914;SDS011;63475;45.140;-75.616;2023-07-29T02:17:08;9.07;;;3.95;;
74914;SDS011;63475;45.140;-75.616;2023-07-29T02:19:11;7.25;;;3.40;;
74914;SDS011;63475;45.140;-75.616;2023-07-29T02:21:14;9.43;;;3.70;;
74914;SDS011;63475;45.140;-75.616;2023-07-29T02:23:17;7.20;;;4.38;;
74914;SDS011;63475;45.140;-75.616;2023-07-29T02:25:20;7.72;;;4.22;;
74914;SDS011;63475;45.140;-75.616;2023-07-29T02:27:22;8.07;;;3.35;;
74914;SDS011;63475;45.140;-75.616;2023-07-29T02:29:28;8.50;;;4.93;;
74914;SDS011;63475;45.140;-75.616;2023-07-29T02:31:32;7.10;;;3.60;;
74914;SDS011;63475;45.140;-75.616;2023-07-29T02:33:36;10.68;;;4.28;;
74914;SDS011;63475;45.140;-75.616;2023-07-29T02:35:39;7.63;;;3.97;;
74914;SDS011;63475;45.140;-75.616;2023-07-29T02:37:41;11.10;;;4.80;;
74914;SDS011;63475;45.140;-75.616;2023-07-29T02:39:44;8.05;;;3.70;;
74914;SDS011;63475;45.140;-75.616;2023-07-29T02:41:47;9.02;;;3.80;;
74914;SDS011;63475;45.140;-75.616;2023-07-29T02:43:49;6.65;;;3.50;;
74914;SDS011;63475;45.140;-75.616;2023-07-29T02:45:52;8.27;;;3.38;;
74914;SDS011;63475;45.140;-75.616;2023-07-29T02:47:55;6.13;;;2.60;;
74914;SDS011;63475;45.140;-75.616;2023-07-29T02:49:58;6.47;;;2.08;;
74914;SDS011;63475;45.140;-75.616;2023-07-29T02:52:00;7.32;;;3.25;;
74914;SDS011;63475;45.140;-75.616;2023-07-29T02:54:03;5.80;;;2.85;;
74914;SDS011;63475;45.140;-75.616;2023-07-29T02:56:06;6.85;;;3.45;;
74914;SDS011;63475;45.140;-75.616;2023-07-29T02:58:14;6.35;;;3.20;;
74914;SDS011;63475;45.140;-75.616;2023-07-29T03:00:47;5.47;;;3.60;;
74914;SDS011;63475;45.140;-75.616;2023-07-29T03:02:53;6.35;;;3.15;;
74914;SDS011;63475;45.140;-75.616;2023-07-29T03:04:55;8.65;;;3.65;;
74914;SDS011;63475;45.140;-75.616;2023-07-29T03:06:58;5.97;;;2.75;;
74914;SDS011;63475;45.140;-75.616;2023-07-29T03:09:01;7.28;;;2.85;;
74914;SDS011;63475;45.140;-75.616;2023-07-29T03:11:11;5.78;;;2.25;;
74914;SDS011;63475;45.140;-75.616;2023-07-29T03:13:15;5.32;;;2.67;;
74914;SDS011;63475;45.140;-75.616;2023-07-29T03:15:18;5.30;;;2.58;;
74914;SDS011;63475;45.140;-75.616;2023-07-29T03:17:20;7.65;;;3.03;;
74914;SDS011;63475;45.140;-75.616;2023-07-29T03:19:23;5.60;;;2.60;;
74914;SDS011;63475;45.140;-75.616;2023-07-29T03:21:26;6.97;;;2.22;;
74914;SDS011;63475;45.140;-75.616;2023-07-29T03:23:28;5.53;;;3.30;;
74914;SDS011;63475;45.140;-75.616;2023-07-29T03:27:36;4.63;;;2.45;;
74914;SDS011;63475;45.140;-75.616;2023-07-29T03:29:38;6.25;;;2.38;;
74914;SDS011;63475;45.140;-75.616;2023-07-29T03:31:41;6.95;;;2.67;;
74914;SDS011;63475;45.140;-75.616;2023-07-29T03:33:43;5.43;;;2.70;;
74914;SDS011;63475;45.140;-75.616;2023-07-29T03:35:46;5.68;;;2.53;;
74914;SDS011;63475;45.140;-75.616;2023-07-29T03:37:49;5.68;;;2.90;;
74914;SDS011;63475;45.140;-75.616;2023-07-29T03:39:51;6.88;;;2.92;;
74914;SDS011;63475;45.140;-75.616;2023-07-29T03:41:54;5.47;;;2.60;;
74914;SDS011;63475;45.140;-75.616;2023-07-29T03:43:57;6.80;;;3.15;;
74914;SDS011;63475;45.140;-75.616;2023-07-29T03:45:59;6.45;;;2.70;;
74914;SDS011;63475;45.140;-75.616;2023-07-29T03:48:02;8.15;;;3.47;;
74914;SDS011;63475;45.140;-75.616;2023-07-29T03:50:06;5.38;;;2.75;;
74914;SDS011;63475;45.140;-75.616;2023-07-29T03:52:10;6.25;;;2.92;;
74914;SDS011;63475;45.140;-75.616;2023-07-29T03:54:12;7.25;;;3.38;;
74914;SDS011;63475;45.140;-75.616;2023-07-29T03:56:15;5.95;;;2.40;;
74914;SDS011;63475;45.140;-75.616;2023-07-29T03:58:18;6.53;;;2.92;;
74914;SDS011;63475;45.140;-75.616;2023-07-29T04:00:21;5.97;;;3.47;;
74914;SDS011;63475;45.140;-75.616;2023-07-29T04:02:23;5.00;;;2.60;;
74914;SDS011;63475;45.140;-75.616;2023-07-29T04:04:26;8.10;;;2.92;;
74914;SDS011;63475;45.140;-75.616;2023-07-29T04:06:29;6.55;;;3.10;;
74914;SDS011;63475;45.140;-75.616;2023-07-29T04:08:31;5.50;;;2.38;;
74914;SDS011;63475;45.140;-75.616;2023-07-29T04:10:34;5.40;;;3.08;;
74914;SDS011;63475;45.140;-75.616;2023-07-29T04:12:37;6.38;;;2.78;;
74914;SDS011;63475;45.140;-75.616;2023-07-29T04:14:39;6.30;;;3.20;;
74914;SDS011;63475;45.140;-75.616;2023-07-29T04:16:42;6.68;;;2.50;;
74914;SDS011;63475;45.140;-75.616;2023-07-29T04:18:46;7.35;;;2.67;;
74914;SDS011;63475;45.140;-75.616;2023-07-29T04:20:49;4.82;;;2.58;;
74914;SDS011;63475;45.140;-75.616;2023-07-29T04:22:51;6.85;;;4.25;;
74914;SDS011;63475;45.140;-75.616;2023-07-29T04:24:54;5.82;;;2.80;;
74914;SDS011;63475;45.140;-75.616;2023-07-29T04:26:57;5.57;;;3.28;;
74914;SDS011;63475;45.140;-75.616;2023-07-29T04:28:59;5.78;;;2.90;;
74914;SDS011;63475;45.140;-75.616;2023-07-29T04:31:02;7.18;;;2.55;;
74914;SDS011;63475;45.140;-75.616;2023-07-29T04:33:05;5.78;;;2.95;;
74914;SDS011;63475;45.140;-75.616;2023-07-29T04:35:08;5.57;;;3.22;;
74914;SDS011;63475;45.140;-75.616;2023-07-29T04:37:11;5.20;;;2.90;;
74914;SDS011;63475;45.140;-75.616;2023-07-29T04:39:13;5.53;;;2.53;;
74914;SDS011;63475;45.140;-75.616;2023-07-29T04:41:16;4.70;;;2.25;;
74914;SDS011;63475;45.140;-75.616;2023-07-29T04:43:19;5.50;;;3.53;;
74914;SDS011;63475;45.140;-75.616;2023-07-29T04:45:21;8.88;;;2.90;;
74914;SDS011;63475;45.140;-75.616;2023-07-29T04:47:24;6.28;;;3.45;;
74914;SDS011;63475;45.140;-75.616;2023-07-29T04:49:27;6.88;;;2.30;;
74914;SDS011;63475;45.140;-75.616;2023-07-29T04:51:30;7.18;;;3.42;;
74914;SDS011;63475;45.140;-75.616;2023-07-29T04:53:36;6.68;;;3.20;;
74914;SDS011;63475;45.140;-75.616;2023-07-29T04:55:41;7.38;;;3.17;;
74914;SDS011;63475;45.140;-75.616;2023-07-29T04:57:45;6.85;;;3.05;;
74914;SDS011;63475;45.140;-75.616;2023-07-29T04:59:48;8.18;;;3.80;;
74914;SDS011;63475;45.140;-75.616;2023-07-29T05:01:50;7.68;;;4.78;;
74914;SDS011;63475;45.140;-75.616;2023-07-29T05:03:55;7.13;;;3.75;;
74914;SDS011;63475;45.140;-75.616;2023-07-29T05:06:00;7.28;;;4.13;;
74914;SDS011;63475;45.140;-75.616;2023-07-29T05:08:03;6.45;;;3.45;;
74914;SDS011;63475;45.140;-75.616;2023-07-29T05:10:06;6.47;;;3.13;;
74914;SDS011;63475;45.140;-75.616;2023-07-29T05:12:09;7.72;;;3.38;;
74914;SDS011;63475;45.140;-75.616;2023-07-29T05:14:13;7.68;;;5.20;;
74914;SDS011;63475;45.140;-75.616;2023-07-29T05:16:16;6.20;;;2.30;;
74914;SDS011;63475;45.140;-75.616;2023-07-29T05:18:19;5.55;;;3.00;;
74914;SDS011;63475;45.140;-75.616;2023-07-29T05:20:22;6.30;;;2.92;;
74914;SDS011;63475;45.140;-75.616;2023-07-29T05:22:25;6.07;;;2.85;;
74914;SDS011;63475;45.140;-75.616;2023-07-29T05:24:27;6.90;;;2.63;;
74914;SDS011;63475;45.140;-75.616;2023-07-29T05:26:30;8.95;;;3.72;;
74914;SDS011;63475;45.140;-75.616;2023-07-29T05:28:32;5.63;;;3.92;;
74914;SDS011;63475;45.140;-75.616;2023-07-29T05:30:35;5.55;;;3.28;;
74914;SDS011;63475;45.140;-75.616;2023-07-29T05:32:39;5.63;;;2.25;;
74914;SDS011;63475;45.140;-75.616;2023-07-29T05:34:41;5.35;;;2.17;;
74914;SDS011;63475;45.140;-75.616;2023-07-29T05:36:44;4.60;;;1.50;;
74914;SDS011;63475;45.140;-75.616;2023-07-29T05:38:47;5.45;;;2.05;;
74914;SDS011;63475;45.140;-75.616;2023-07-29T05:40:49;4.38;;;2.40;;
74914;SDS011;63475;45.140;-75.616;2023-07-29T05:42:52;6.85;;;2.67;;
74914;SDS011;63475;45.140;-75.616;2023-07-29T05:44:55;4.40;;;1.85;;
74914;SDS011;63475;45.140;-75.616;2023-07-29T05:46:58;6.00;;;1.65;;
74914;SDS011;63475;45.140;-75.616;2023-07-29T05:49:00;4.30;;;1.92;;
74914;SDS011;63475;45.140;-75.616;2023-07-29T05:51:03;3.97;;;1.73;;
74914;SDS011;63475;45.140;-75.616;2023-07-29T05:53:07;4.15;;;2.20;;
74914;SDS011;63475;45.140;-75.616;2023-07-29T05:55:10;4.47;;;1.67;;
74914;SDS011;63475;45.140;-75.616;2023-07-29T05:57:13;5.47;;;1.60;;
74914;SDS011;63475;45.140;-75.616;2023-07-29T05:59:16;3.45;;;2.45;;
74914;SDS011;63475;45.140;-75.616;2023-07-29T06:01:18;3.55;;;1.83;;
74914;SDS011;63475;45.140;-75.616;2023-07-29T06:03:23;4.70;;;2.10;;
74914;SDS011;63475;45.140;-75.616;2023-07-29T06:05:26;3.97;;;2.05;;
74914;SDS011;63475;45.140;-75.616;2023-07-29T06:07:29;2.85;;;1.52;;
74914;SDS011;63475;45.140;-75.616;2023-07-29T06:09:33;3.50;;;1.73;;
74914;SDS011;63475;45.140;-75.616;2023-07-29T06:11:36;4.50;;;2.17;;
74914;SDS011;63475;45.140;-75.616;2023-07-29T06:13:39;4.30;;;1.75;;
74914;SDS011;63475;45.140;-75.616;2023-07-29T06:15:41;4.10;;;1.38;;
74914;SDS011;63475;45.140;-75.616;2023-07-29T06:17:44;5.05;;;1.95;;
74914;SDS011;63475;45.140;-75.616;2023-07-29T06:19:47;3.67;;;1.45;;
74914;SDS011;63475;45.140;-75.616;2023-07-29T06:21:49;3.65;;;2.08;;
74914;SDS011;63475;45.140;-75.616;2023-07-29T06:23:52;4.78;;;2.38;;
74914;SDS011;63475;45.140;-75.616;2023-07-29T06:25:54;3.75;;;1.63;;
74914;SDS011;63475;45.140;-75.616;2023-07-29T06:27:57;2.92;;;1.40;;
74914;SDS011;63475;45.140;-75.616;2023-07-29T06:30:00;4.80;;;1.70;;
74914;SDS011;63475;45.140;-75.616;2023-07-29T06:32:02;3.67;;;1.60;;
74914;SDS011;63475;45.140;-75.616;2023-07-29T06:34:05;3.53;;;1.30;;
74914;SDS011;63475;45.140;-75.616;2023-07-29T06:36:08;4.75;;;2.10;;
74914;SDS011;63475;45.140;-75.616;2023-07-29T06:38:10;4.32;;;1.60;;
74914;SDS011;63475;45.140;-75.616;2023-07-29T06:40:13;4.18;;;1.65;;
74914;SDS011;63475;45.140;-75.616;2023-07-29T06:42:15;6.38;;;2.03;;
74914;SDS011;63475;45.140;-75.616;2023-07-29T06:44:18;3.65;;;1.63;;
74914;SDS011;63475;45.140;-75.616;2023-07-29T06:46:21;3.80;;;2.17;;
74914;SDS011;63475;45.140;-75.616;2023-07-29T06:48:23;4.82;;;1.88;;
74914;SDS011;63475;45.140;-75.616;2023-07-29T06:50:26;3.15;;;1.23;;
74914;SDS011;63475;45.140;-75.616;2023-07-29T06:52:28;3.58;;;1.65;;
74914;SDS011;63475;45.140;-75.616;2023-07-29T06:54:31;3.50;;;1.67;;
74914;SDS011;63475;45.140;-75.616;2023-07-29T06:56:34;3.78;;;2.03;;
74914;SDS011;63475;45.140;-75.616;2023-07-29T06:58:37;3.25;;;1.20;;
74914;SDS011;63475;45.140;-75.616;2023-07-29T07:00:39;5.43;;;2.33;;
74914;SDS011;63475;45.140;-75.616;2023-07-29T07:02:52;3.63;;;1.55;;
74914;SDS011;63475;45.140;-75.616;2023-07-29T07:04:55;3.72;;;1.88;;
74914;SDS011;63475;45.140;-75.616;2023-07-29T07:06:58;4.38;;;2.20;;
74914;SDS011;63475;45.140;-75.616;2023-07-29T07:09:00;2.42;;;0.90;;
74914;SDS011;63475;45.140;-75.616;2023-07-29T07:11:03;2.75;;;1.40;;
74914;SDS011;63475;45.140;-75.616;2023-07-29T07:13:06;5.10;;;1.13;;
74914;SDS011;63475;45.140;-75.616;2023-07-29T07:15:08;3.03;;;0.88;;
74914;SDS011;63475;45.140;-75.616;2023-07-29T07:17:11;6.15;;;1.77;;
74914;SDS011;63475;45.140;-75.616;2023-07-29T07:19:14;4.10;;;1.48;;
74914;SDS011;63475;45.140;-75.616;2023-07-29T07:21:16;4.00;;;1.50;;
74914;SDS011;63475;45.140;-75.616;2023-07-29T07:23:19;2.92;;;2.20;;
74914;SDS011;63475;45.140;-75.616;2023-07-29T07:25:22;5.10;;;1.50;;
74914;SDS011;63475;45.140;-75.616;2023-07-29T07:27:24;4.53;;;1.60;;
74914;SDS011;63475;45.140;-75.616;2023-07-29T07:29:27;2.92;;;1.10;;
74914;SDS011;63475;45.140;-75.616;2023-07-29T07:31:32;3.58;;;1.98;;
74914;SDS011;63475;45.140;-75.616;2023-07-29T07:33:36;4.38;;;2.22;;
74914;SDS011;63475;45.140;-75.616;2023-07-29T07:35:39;3.40;;;1.27;;
74914;SDS011;63475;45.140;-75.616;2023-07-29T07:37:44;5.22;;;1.83;;
74914;SDS011;63475;45.140;-75.616;2023-07-29T07:39:46;3.75;;;1.80;;
74914;SDS011;63475;45.140;-75.616;2023-07-29T07:41:49;3.15;;;1.65;;
74914;SDS011;63475;45.140;-75.616;2023-07-29T07:43:52;2.63;;;1.33;;
74914;SDS011;63475;45.140;-75.616;2023-07-29T07:45:58;3.22;;;1.42;;
74914;SDS011;63475;45.140;-75.616;2023-07-29T07:48:01;4.45;;;2.05;;
74914;SDS011;63475;45.140;-75.616;2023-07-29T07:50:04;6.78;;;2.33;;
74914;SDS011;63475;45.140;-75.616;2023-07-29T07:52:07;6.30;;;2.08;;
74914;SDS011;63475;45.140;-75.616;2023-07-29T07:54:10;4.65;;;1.55;;
74914;SDS011;63475;45.140;-75.616;2023-07-29T07:56:13;3.90;;;1.80;;
74914;SDS011;63475;45.140;-75.616;2023-07-29T07:58:15;3.97;;;2.15;;
74914;SDS011;63475;45.140;-75.616;2023-07-29T08:00:18;5.05;;;1.48;;
74914;SDS011;63475;45.140;-75.616;2023-07-29T08:02:24;4.90;;;1.75;;
74914;SDS011;63475;45.140;-75.616;2023-07-29T08:04:31;2.83;;;1.42;;
74914;SDS011;63475;45.140;-75.616;2023-07-29T08:06:37;3.45;;;1.77;;
74914;SDS011;63475;45.140;-75.616;2023-07-29T08:08:45;3.42;;;1.60;;
74914;SDS011;63475;45.140;-75.616;2023-07-29T08:10:50;3.42;;;1.83;;
74914;SDS011;63475;45.140;-75.616;2023-07-29T08:12:52;5.78;;;1.77;;
74914;SDS011;63475;45.140;-75.616;2023-07-29T08:14:55;3.25;;;1.55;;
74914;SDS011;63475;45.140;-75.616;2023-07-29T08:16:58;4.97;;;1.30;;
74914;SDS011;63475;45.140;-75.616;2023-07-29T08:19:00;7.60;;;2.10;;
74914;SDS011;63475;45.140;-75.616;2023-07-29T08:21:03;3.58;;;1.70;;
74914;SDS011;63475;45.140;-75.616;2023-07-29T08:23:09;4.13;;;2.03;;
74914;SDS011;63475;45.140;-75.616;2023-07-29T08:25:12;5.25;;;1.92;;
74914;SDS011;63475;45.140;-75.616;2023-07-29T08:27:14;3.47;;;1.40;;
74914;SDS011;63475;45.140;-75.616;2023-07-29T08:29:17;2.13;;;0.80;;
74914;SDS011;63475;45.140;-75.616;2023-07-29T08:31:19;3.63;;;1.13;;
74914;SDS011;63475;45.140;-75.616;2023-07-29T08:33:28;3.40;;;1.58;;
74914;SDS011;63475;45.140;-75.616;2023-07-29T08:35:31;4.60;;;1.40;;
74914;SDS011;63475;45.140;-75.616;2023-07-29T08:37:36;2.95;;;1.15;;
74914;SDS011;63475;45.140;-75.616;2023-07-29T08:39:39;4.40;;;1.55;;
74914;SDS011;63475;45.140;-75.616;2023-07-29T08:41:46;5.80;;;1.48;;
74914;SDS011;63475;45.140;-75.616;2023-07-29T08:44:35;3.38;;;1.45;;
74914;SDS011;63475;45.140;-75.616;2023-07-29T08:46:24;3.53;;;1.52;;
74914;SDS011;63475;45.140;-75.616;2023-07-29T08:48:36;3.17;;;1.30;;
74914;SDS011;63475;45.140;-75.616;2023-07-29T08:50:43;7.82;;;1.52;;
74914;SDS011;63475;45.140;-75.616;2023-07-29T08:52:47;6.50;;;2.08;;
74914;SDS011;63475;45.140;-75.616;2023-07-29T08:54:53;4.85;;;1.50;;
74914;SDS011;63475;45.140;-75.616;2023-07-29T08:56:56;3.13;;;1.10;;
74914;SDS011;63475;45.140;-75.616;2023-07-29T08:58:59;2.78;;;1.70;;
74914;SDS011;63475;45.140;-75.616;2023-07-29T09:01:04;2.83;;;1.35;;
74914;SDS011;63475;45.140;-75.616;2023-07-29T09:03:07;3.72;;;1.52;;
74914;SDS011;63475;45.140;-75.616;2023-07-29T09:05:10;4.63;;;1.77;;
74914;SDS011;63475;45.140;-75.616;2023-07-29T09:07:13;4.82;;;1.67;;
74914;SDS011;63475;45.140;-75.616;2023-07-29T09:33:05;3.97;;;2.40;;
74914;SDS011;63475;45.140;-75.616;2023-07-29T09:35:12;3.80;;;2.47;;
74914;SDS011;63475;45.140;-75.616;2023-07-29T09:37:16;4.60;;;2.65;;
74914;SDS011;63475;45.140;-75.616;2023-07-29T09:39:20;2.22;;;0.73;;
74914;SDS011;63475;45.140;-75.616;2023-07-29T09:41:26;3.67;;;2.17;;
74914;SDS011;63475;45.140;-75.616;2023-07-29T09:43:31;3.85;;;2.08;;
74914;SDS011;63475;45.140;-75.616;2023-07-29T09:45:35;3.75;;;2.00;;
74914;SDS011;63475;45.140;-75.616;2023-07-29T09:47:39;4.13;;;1.92;;
74914;SDS011;63475;45.140;-75.616;2023-07-29T09:49:44;3.85;;;1.85;;
74914;SDS011;63475;45.140;-75.616;2023-07-29T09:51:46;6.53;;;1.83;;
74914;SDS011;63475;45.140;-75.616;2023-07-29T09:53:50;2.75;;;1.45;;
74914;SDS011;63475;45.140;-75.616;2023-07-29T09:55:57;3.90;;;2.30;;
74914;SDS011;63475;45.140;-75.616;2023-07-29T09:58:00;3.83;;;2.03;;
74914;SDS011;63475;45.140;-75.616;2023-07-29T10:00:06;3.95;;;2.20;;
74914;SDS011;63475;45.140;-75.616;2023-07-29T10:02:13;4.22;;;2.10;;
74914;SDS011;63475;45.140;-75.616;2023-07-29T10:04:18;4.47;;;1.73;;
74914;SDS011;63475;45.140;-75.616;2023-07-29T10:06:22;4.55;;;2.22;;
74914;SDS011;63475;45.140;-75.616;2023-07-29T10:08:25;5.15;;;1.58;;
74914;SDS011;63475;45.140;-75.616;2023-07-29T10:10:29;3.83;;;1.60;;
74914;SDS011;63475;45.140;-75.616;2023-07-29T10:12:33;9.55;;;1.92;;
74914;SDS011;63475;45.140;-75.616;2023-07-29T10:14:36;4.55;;;2.38;;
74914;SDS011;63475;45.140;-75.616;2023-07-29T10:16:40;4.28;;;1.85;;
74914;SDS011;63475;45.140;-75.616;2023-07-29T10:18:47;3.85;;;2.75;;
74914;SDS011;63475;45.140;-75.616;2023-07-29T10:20:51;2.10;;;0.60;;
74914;SDS011;63475;45.140;-75.616;2023-07-29T10:22:54;3.78;;;2.00;;
74914;SDS011;63475;45.140;-75.616;2023-07-29T10:25:03;3.83;;;0.73;;
74914;SDS011;63475;45.140;-75.616;2023-07-29T10:27:10;3.55;;;1.80;;
74914;SDS011;63475;45.140;-75.616;2023-07-29T10:29:18;3.65;;;1.80;;
74914;SDS011;63475;45.140;-75.616;2023-07-29T10:31:24;3.13;;;0.68;;
74914;SDS011;63475;45.140;-75.616;2023-07-29T10:33:27;3.33;;;0.60;;
74914;SDS011;63475;45.140;-75.616;2023-07-29T10:35:30;6.82;;;2.22;;
74914;SDS011;63475;45.140;-75.616;2023-07-29T10:37:35;3.30;;;1.98;;
74914;SDS011;63475;45.140;-75.616;2023-07-29T10:39:39;3.83;;;2.03;;
74914;SDS011;63475;45.140;-75.616;2023-07-29T10:41:58;3.42;;;2.10;;
74914;SDS011;63475;45.140;-75.616;2023-07-29T10:44:03;3.65;;;1.60;;
74914;SDS011;63475;45.140;-75.616;2023-07-29T10:46:21;4.10;;;1.60;;
74914;SDS011;63475;45.140;-75.616;2023-07-29T10:50:39;3.20;;;1.83;;
74914;SDS011;63475;45.140;-75.616;2023-07-29T10:52:41;3.65;;;1.42;;
74914;SDS011;63475;45.140;-75.616;2023-07-29T10:54:47;5.47;;;1.83;;
74914;SDS011;63475;45.140;-75.616;2023-07-29T10:56:50;4.10;;;1.58;;
74914;SDS011;63475;45.140;-75.616;2023-07-29T10:58:54;3.63;;;2.10;;
74914;SDS011;63475;45.140;-75.616;2023-07-29T11:03:07;6.80;;;1.58;;
74914;SDS011;63475;45.140;-75.616;2023-07-29T11:05:17;4.00;;;1.77;;
74914;SDS011;63475;45.140;-75.616;2023-07-29T11:07:21;3.20;;;2.03;;
74914;SDS011;63475;45.140;-75.616;2023-07-29T11:11:58;5.72;;;0.80;;
74914;SDS011;63475;45.140;-75.616;2023-07-29T11:14:08;3.20;;;1.58;;
74914;SDS011;63475;45.140;-75.616;2023-07-29T11:16:10;2.67;;;1.65;;
74914;SDS011;63475;45.140;-75.616;2023-07-29T11:18:18;2.25;;;1.17;;
74914;SDS011;63475;45.140;-75.616;2023-07-29T11:20:32;3.95;;;1.92;;
74914;SDS011;63475;45.140;-75.616;2023-07-29T11:22:36;6.00;;;1.88;;
74914;SDS011;63475;45.140;-75.616;2023-07-29T11:24:41;5.18;;;1.80;;
74914;SDS011;63475;45.140;-75.616;2023-07-29T11:26:47;2.95;;;1.70;;
74914;SDS011;63475;45.140;-75.616;2023-07-29T11:28:49;4.40;;;1.65;;
74914;SDS011;63475;45.140;-75.616;2023-07-29T11:30:53;3.75;;;1.80;;
74914;SDS011;63475;45.140;-75.616;2023-07-29T11:32:57;4.57;;;1.73;;
74914;SDS011;63475;45.140;-75.616;2023-07-29T11:37:11;3.72;;;2.03;;
74914;SDS011;63475;45.140;-75.616;2023-07-29T11:39:14;3.58;;;1.67;;
74914;SDS011;63475;45.140;-75.616;2023-07-29T11:41:19;2.70;;;1.58;;
74914;SDS011;63475;45.140;-75.616;2023-07-29T11:45:25;5.30;;;2.03;;
74914;SDS011;63475;45.140;-75.616;2023-07-29T11:47:47;4.18;;;2.13;;
74914;SDS011;63475;45.140;-75.616;2023-07-29T11:49:49;7.72;;;1.85;;
74914;SDS011;63475;45.140;-75.616;2023-07-29T11:51:52;2.53;;;0.70;;
74914;SDS011;63475;45.140;-75.616;2023-07-29T11:53:55;3.13;;;1.42;;
74914;SDS011;63475;45.140;-75.616;2023-07-29T11:55:58;4.05;;;2.50;;
74914;SDS011;63475;45.140;-75.616;2023-07-29T11:58:01;3.60;;;2.17;;
74914;SDS011;63475;45.140;-75.616;2023-07-29T12:00:06;3.33;;;1.48;;
74914;SDS011;63475;45.140;-75.616;2023-07-29T12:02:18;3.33;;;2.00;;
74914;SDS011;63475;45.140;-75.616;2023-07-29T12:04:22;2.90;;;1.17;;
74914;SDS011;63475;45.140;-75.616;2023-07-29T12:06:25;4.10;;;1.77;;
74914;SDS011;63475;45.140;-75.616;2023-07-29T12:08:29;3.08;;;1.58;;
74914;SDS011;63475;45.140;-75.616;2023-07-29T12:10:31;4.55;;;1.92;;
74914;SDS011;63475;45.140;-75.616;2023-07-29T12:12:38;5.75;;;0.85;;
74914;SDS011;63475;45.140;-75.616;2023-07-29T12:14:50;3.55;;;1.92;;
74914;SDS011;63475;45.140;-75.616;2023-07-29T12:16:53;2.28;;;0.45;;
74914;SDS011;63475;45.140;-75.616;2023-07-29T12:18:56;5.75;;;1.90;;
74914;SDS011;63475;45.140;-75.616;2023-07-29T12:21:02;2.90;;;1.50;;
74914;SDS011;63475;45.140;-75.616;2023-07-29T12:23:05;2.17;;;1.15;;
74914;SDS011;63475;45.140;-75.616;2023-07-29T12:25:09;3.30;;;1.40;;
74914;SDS011;63475;45.140;-75.616;2023-07-29T12:27:12;2.50;;;1.23;;
74914;SDS011;63475;45.140;-75.616;2023-07-29T12:29:18;5.65;;;1.40;;
74914;SDS011;63475;45.140;-75.616;2023-07-29T12:31:22;2.40;;;1.30;;
74914;SDS011;63475;45.140;-75.616;2023-07-29T12:33:35;3.90;;;1.40;;
74914;SDS011;63475;45.140;-75.616;2023-07-29T12:35:44;2.95;;;1.48;;
74914;SDS011;63475;45.140;-75.616;2023-07-29T12:37:57;3.05;;;1.65;;
74914;SDS011;63475;45.140;-75.616;2023-07-29T12:40:01;2.63;;;1.10;;
74914;SDS011;63475;45.140;-75.616;2023-07-29T12:42:04;5.65;;;1.63;;
74914;SDS011;63475;45.140;-75.616;2023-07-29T12:44:07;2.08;;;1.17;;
74914;SDS011;63475;45.140;-75.616;2023-07-29T12:46:09;2.75;;;1.42;;
74914;SDS011;63475;45.140;-75.616;2023-07-29T12:48:12;2.80;;;0.40;;
74914;SDS011;63475;45.140;-75.616;2023-07-29T12:50:15;2.90;;;1.50;;